Sawyer, Oklahoma
Current Conditions -  °F | °C
As of 3:35 AM on Sunday 26 Oct 2014 (Local Time) from KHHW Reporting Station
Clear Clear  
Wind Chill: 68°   Ceiling: Unl
Heat Index: 68°   Visibility: 10mi
Dew Point: 61°   Wind: 7mph
Humidity: 77%   Direction: 220°SW
Pressure: 30"   Gusts: NA
Location:  34.01°N, 95.37°W
Report Text: KHHW 260835Z AUTO 22006KT 10SM CLR 20/16 A3000 RMK AO2 T02020161
Loading
Personal Weather Stations






























Interactive Weather Map
Tropical Storm Tracking
New forecast layout! Learn more

10-Day Weather Forecast

Advertisements
Track Severe Weather on mobile